United Spirit — ELYB2 — position and weather

sailwx.info

Track history (hours):
 
Tides and Currents Weather Stations Pressure Air Temp Water Temp Dewpoint Dewpoint Depression Visibility Wind Speed Wind Dir Waves Ship Positions

United Spirit

Last reported at 2014-Oct-31 15:10 UTC. Time now 2014-Oct-31 23:07 UTC.
Position S 32°29' E 153°07'.

Type: Cargo ship. MMSI: 636011280.

Date/timePositionNaut miles runAvg speedWind from/ knotsBaromVisibWave heightAir tempDewpointWater temp
2014-Oct-31 15:10S 32°29' E 153°07'915.3
2014-Oct-31 14:33S 32°36' E 152°60'1615.5
2014-Oct-31 13:30S 32°48' E 152°47'1515.5
2014-Oct-31 12:32S 32°59' E 152°35'1515.0
2014-Oct-31 11:33S 33°10' E 152°23'1515.2
2014-Oct-31 10:33S 33°21' E 152°11'1514.9
2014-Oct-31 09:33S 33°32' E 151°59'1514.6
2014-Oct-31 08:33S 33°43' E 151°47'1414.4
2014-Oct-31 07:33S 33°53' E 151°35'1414.4
2014-Oct-31 06:33S 34°02' E 151°22'1616.4
2014-Oct-31 05:33S 34°15' E 151°10'1615.8
2014-Oct-31 04:33S 34°26' E 150°56'11 0.9
2014-Oct-30 16:32S 34°30' E 151°08'8 8.1
2014-Oct-30 15:33S 34°38' E 151°07'6315.3
2014-Oct-30 11:27S 35°40' E 150°58'10217.2
2014-Oct-30 05:33S 37°16' E 150°14'1817.7
2014-Oct-30 04:31S 37°33' E 150°08'1616.8
2014-Oct-30 03:33S 37°47' E 149°57'4317.5
2014-Oct-30 01:06S 38°13' E 149°14'917.2
2014-Oct-30 00:33S 38°19' E 149°05'1817.2
2014-Oct-29 23:32S 38°29' E 148°47'7418.2
2014-Oct-29 19:28S 39°02' E 147°22'1618.1
2014-Oct-29 18:33S 39°08' E 147°02'1817.7
2014-Oct-29 17:33S 39°15' E 146°41'1717.2
2014-Oct-29 16:33S 39°17' E 146°19'1817.7
2014-Oct-29 15:33S 39°11' E 145°58'162 4.6
2014-Oct-28 04:32S 38°47' E 142°32'1616.5
2014-Oct-28 03:33S 38°42' E 142°12'1716.7
2014-Oct-28 02:32S 38°38' E 141°51'25016.4
2014-Oct-27 11:20S 35°44' E 138°06'1317.2
2014-Oct-27 10:33S 35°31' E 138°03'2117.0
2014-Oct-27 09:20S 35°11' E 138°12'1317.0
2014-Oct-27 08:33S 34°59' E 138°16'1212.4
2014-Oct-27 07:33S 34°48' E 138°24'4 3.2
2014-Oct-27 06:14S 34°47' E 138°29'0 0.0
2014-Oct-27 03:32S 34°47' E 138°29'0 0.0
2014-Oct-26 22:23S 34°47' E 138°29'0 0.0
2014-Oct-26 20:32S 34°47' E 138°29'  
Track history (hours):
 
Tides and Currents Weather Stations Pressure Air Temp Water Temp Dewpoint Dewpoint Depression Visibility Wind Speed Wind Dir Waves Ship Positions

United Spirit

Last reported at 2014-Oct-31 15:10 UTC. Time now 2014-Oct-31 23:07 UTC.
Position S 32°29' E 153°07'.

Type: Cargo ship. MMSI: 636011280.

Date/timePositionNaut miles runAvg speedWind from/ knotsBaromVisibWave heightAir tempDewpointWater temp
2014-Oct-31 15:10S 32°29' E 153°07'915.3
2014-Oct-31 14:33S 32°36' E 152°60'1615.5
2014-Oct-31 13:30S 32°48' E 152°47'1515.5
2014-Oct-31 12:32S 32°59' E 152°35'1515.0
2014-Oct-31 11:33S 33°10' E 152°23'1515.2
2014-Oct-31 10:33S 33°21' E 152°11'1514.9
2014-Oct-31 09:33S 33°32' E 151°59'1514.6
2014-Oct-31 08:33S 33°43' E 151°47'1414.4
2014-Oct-31 07:33S 33°53' E 151°35'1414.4
2014-Oct-31 06:33S 34°02' E 151°22'1616.4
2014-Oct-31 05:33S 34°15' E 151°10'1615.8
2014-Oct-31 04:33S 34°26' E 150°56'11 0.9
2014-Oct-30 16:32S 34°30' E 151°08'8 8.1
2014-Oct-30 15:33S 34°38' E 151°07'6315.3
2014-Oct-30 11:27S 35°40' E 150°58'10217.2
2014-Oct-30 05:33S 37°16' E 150°14'1817.7
2014-Oct-30 04:31S 37°33' E 150°08'1616.8
2014-Oct-30 03:33S 37°47' E 149°57'4317.5
2014-Oct-30 01:06S 38°13' E 149°14'917.2
2014-Oct-30 00:33S 38°19' E 149°05'1817.2
2014-Oct-29 23:32S 38°29' E 148°47'7418.2
2014-Oct-29 19:28S 39°02' E 147°22'1618.1
2014-Oct-29 18:33S 39°08' E 147°02'1817.7
2014-Oct-29 17:33S 39°15' E 146°41'1717.2
2014-Oct-29 16:33S 39°17' E 146°19'1817.7
2014-Oct-29 15:33S 39°11' E 145°58'162 4.6
2014-Oct-28 04:32S 38°47' E 142°32'1616.5
2014-Oct-28 03:33S 38°42' E 142°12'1716.7
2014-Oct-28 02:32S 38°38' E 141°51'25016.4
2014-Oct-27 11:20S 35°44' E 138°06'1317.2
2014-Oct-27 10:33S 35°31' E 138°03'2117.0
2014-Oct-27 09:20S 35°11' E 138°12'1317.0
2014-Oct-27 08:33S 34°59' E 138°16'1212.4
2014-Oct-27 07:33S 34°48' E 138°24'4 3.2
2014-Oct-27 06:14S 34°47' E 138°29'0 0.0
2014-Oct-27 03:32S 34°47' E 138°29'0 0.0
2014-Oct-26 22:23S 34°47' E 138°29'0 0.0
2014-Oct-26 20:32S 34°47' E 138°29'  

Dump ship's entire track history